Conconully, Washington
Current Conditions -  °F | °C
As of 4:25 AM on Friday 19 Dec 2014 (Local Time) from KOMK Reporting Station
Light Rain Light Rain  
Wind Chill: 33°   Ceiling: 1200
Heat Index: 33°   Visibility: 4mi
Dew Point: 32°   Wind: 0mph
Humidity: 96%   Direction: NA
Pressure: 29.85"   Gusts: NA
Location:  48.56°N, 119.75°W
Report Text: KOMK 191225Z AUTO 00000KT 4SM -RA BR SCT006 OVC012 01/00 A2985 RMK AO2 P0001 T00060000
Loading
Personal Weather Stations






























Interactive Weather Map New forecast layout! Learn more

10-Day Weather Forecast

Advertisements
Track Severe Weather on mobile